Forside
METAR-TAF:

METAR-TAF

Lufthavne :

Halmstad, Sverige

Breddekreds: 56-41N, længdekreds: 012-50E, højde: 30 m

Aktuelle vejr

Denne rapport blev lavet for 25 minutter siden, kl. 19:50 UTC
Vind 21 kt fra vest
Temperatur 5°C
Fugtighed 75%
Tryk 997 hPa
Sigt 10 km eller mere

METAR: ESMT 221950Z AUTO 26021KT 9999 FEW031/// 05/01 Q0997

Tid: 21:15 (20:15 UTC)

Vejrudsigter

Denne rapport blev lavet for 8 timer og 11 minutter siden, kl. 12:04 UTC
Foreløbig gælder fra 22 på 12 UTC til 22 på 16 UTC
Vind 20 kt fra vest
Sigt 10 km eller mere
Brudte skyer i en højde af 1500 ft
Midlertidig
fra 22 på 12 UTC til 22 på 16 UTC
Vind 23 kt fra vest med vindstød på up til 40 kt
Brudte skyer i en højde af 700 ft
Spredte skyer i en højde af 2000 ft, Cumulonimbus.

TAF: ESMT 221204Z 2212/2216 26020KT 9999 BKN015 TEMPO 2212/2216 26023G40KT BKN007 SCT020CB

Vejrobservationer og prognoser fra mere end 4000 lufthavne (METAR og TAF).

De gule og røde prikker repræsenterer de meteorologiske stationer.

Flyt musen over at se navnet på stationen.

Så klik over at se vejr observationer og prognoser.

At skifte det kort: Klik på de grønne knapper med et sort kors for at zoome ind; på den grønne knap med en bindestreg for at zoome ud; eller på de grønne pile for tilstødende kort.


METAR-TAF: